Terminal Aerodrome Forecast
Issued by NWS

Home | Current Version | Previous Version | Text Only | Print | Product List | Glossary On
Versions: 1 2 3 4 5 6 7 8 9 10 11 12 13 14 15 16 17 18 19 20 21 22 23 24
533
FTUS42 KMFL 221144
TAFOPF
TAF
KOPF 221144Z 2212/2312 26004KT 4SM FU SKC
     FM221400 VRB04KT P6SM FEW025
     FM221700 15011KT P6SM VCTS SCT030 BKN050CB
     FM222300 14007KT P6SM VCSH SCT025 BKN050
     FM230100 VRB05KT P6SM FEW025 SCT250=

USA.gov is the U.S. government's official web portal to all federal, state and local government web resources and services.